sensor_id;sensor_type;location;lat;lon;timestamp;pressure;altitude;pressure_sealevel;temperature;humidity
41947;BME280;27638;42.184;24.848;2022-07-10T00:01:04;99458.56;;;21.87;60.82
41947;BME280;27638;42.184;24.848;2022-07-10T00:03:29;99451.88;;;21.89;60.92
41947;BME280;27638;42.184;24.848;2022-07-10T00:05:55;99438.19;;;21.79;60.99
41947;BME280;27638;42.184;24.848;2022-07-10T00:08:20;99435.00;;;21.82;60.87
41947;BME280;27638;42.184;24.848;2022-07-10T00:10:45;99449.19;;;21.78;61.12
41947;BME280;27638;42.184;24.848;2022-07-10T00:13:11;99443.91;;;21.54;62.24
41947;BME280;27638;42.184;24.848;2022-07-10T00:15:36;99450.69;;;21.57;62.20
41947;BME280;27638;42.184;24.848;2022-07-10T00:18:02;99457.25;;;21.61;62.24
41947;BME280;27638;42.184;24.848;2022-07-10T00:20:27;99452.53;;;21.68;62.21
41947;BME280;27638;42.184;24.848;2022-07-10T00:22:53;99447.13;;;21.68;62.10
41947;BME280;27638;42.184;24.848;2022-07-10T00:25:18;99451.72;;;21.67;62.13
41947;BME280;27638;42.184;24.848;2022-07-10T00:27:44;99447.19;;;21.56;62.41
41947;BME280;27638;42.184;24.848;2022-07-10T00:30:10;99438.72;;;21.64;62.23
41947;BME280;27638;42.184;24.848;2022-07-10T00:32:36;99435.22;;;21.64;62.12
41947;BME280;27638;42.184;24.848;2022-07-10T00:35:02;99422.59;;;21.53;62.49
41947;BME280;27638;42.184;24.848;2022-07-10T00:37:28;99430.53;;;21.59;62.55
41947;BME280;27638;42.184;24.848;2022-07-10T00:39:54;99433.38;;;21.53;62.74
41947;BME280;27638;42.184;24.848;2022-07-10T00:42:20;99430.78;;;21.58;62.55
41947;BME280;27638;42.184;24.848;2022-07-10T00:44:46;99427.38;;;21.62;62.31
41947;BME280;27638;42.184;24.848;2022-07-10T00:47:12;99428.03;;;21.70;62.17
41947;BME280;27638;42.184;24.848;2022-07-10T00:49:39;99422.94;;;21.85;61.17
41947;BME280;27638;42.184;24.848;2022-07-10T00:52:10;99432.47;;;21.76;61.70
41947;BME280;27638;42.184;24.848;2022-07-10T00:54:40;99425.59;;;21.68;61.92
41947;BME280;27638;42.184;24.848;2022-07-10T00:57:06;99424.44;;;21.92;61.01
41947;BME280;27638;42.184;24.848;2022-07-10T00:59:32;99419.88;;;21.81;61.28
41947;BME280;27638;42.184;24.848;2022-07-10T01:01:58;99430.34;;;21.78;61.39
41947;BME280;27638;42.184;24.848;2022-07-10T01:04:24;99419.88;;;21.81;61.06
41947;BME280;27638;42.184;24.848;2022-07-10T01:06:49;99421.88;;;21.86;60.82
41947;BME280;27638;42.184;24.848;2022-07-10T01:09:15;99419.06;;;21.81;60.73
41947;BME280;27638;42.184;24.848;2022-07-10T01:11:41;99417.41;;;21.91;60.04
41947;BME280;27638;42.184;24.848;2022-07-10T01:14:06;99417.56;;;21.85;60.40
41947;BME280;27638;42.184;24.848;2022-07-10T01:16:32;99407.69;;;21.90;59.96
41947;BME280;27638;42.184;24.848;2022-07-10T01:18:58;99404.28;;;21.83;60.00
41947;BME280;27638;42.184;24.848;2022-07-10T01:21:34;99408.28;;;21.81;60.10
41947;BME280;27638;42.184;24.848;2022-07-10T01:24:04;99413.31;;;21.89;59.49
41947;BME280;27638;42.184;24.848;2022-07-10T01:26:31;99409.59;;;21.78;59.85
41947;BME280;27638;42.184;24.848;2022-07-10T01:28:58;99407.81;;;21.84;59.57
41947;BME280;27638;42.184;24.848;2022-07-10T01:31:26;99407.06;;;21.72;60.11
41947;BME280;27638;42.184;24.848;2022-07-10T01:33:52;99403.84;;;21.86;59.78
41947;BME280;27638;42.184;24.848;2022-07-10T01:36:19;99395.63;;;21.81;59.85
41947;BME280;27638;42.184;24.848;2022-07-10T01:38:46;99393.34;;;21.73;60.35
41947;BME280;27638;42.184;24.848;2022-07-10T01:41:11;99394.06;;;21.68;60.32
41947;BME280;27638;42.184;24.848;2022-07-10T01:43:37;99392.59;;;21.78;60.06
41947;BME280;27638;42.184;24.848;2022-07-10T01:46:03;99397.34;;;21.71;60.51
41947;BME280;27638;42.184;24.848;2022-07-10T01:48:30;99389.72;;;21.67;60.19
41947;BME280;27638;42.184;24.848;2022-07-10T01:50:56;99382.97;;;21.65;60.42
41947;BME280;27638;42.184;24.848;2022-07-10T01:53:22;99378.13;;;21.50;60.94
41947;BME280;27638;42.184;24.848;2022-07-10T01:55:47;99381.06;;;21.65;60.74
41947;BME280;27638;42.184;24.848;2022-07-10T01:58:13;99384.66;;;21.54;61.27
41947;BME280;27638;42.184;24.848;2022-07-10T02:00:38;99383.75;;;21.49;61.46
41947;BME280;27638;42.184;24.848;2022-07-10T02:03:04;99383.38;;;21.28;62.11
41947;BME280;27638;42.184;24.848;2022-07-10T02:05:48;99378.78;;;21.29;62.50
41947;BME280;27638;42.184;24.848;2022-07-10T02:08:13;99375.47;;;21.39;62.16
41947;BME280;27638;42.184;24.848;2022-07-10T02:10:39;99385.72;;;21.25;62.47
41947;BME280;27638;42.184;24.848;2022-07-10T02:13:04;99388.50;;;21.30;62.95
41947;BME280;27638;42.184;24.848;2022-07-10T02:15:30;99382.97;;;21.37;62.29
41947;BME280;27638;42.184;24.848;2022-07-10T02:17:55;99377.94;;;21.40;62.06
41947;BME280;27638;42.184;24.848;2022-07-10T02:20:20;99382.47;;;21.11;63.38
41947;BME280;27638;42.184;24.848;2022-07-10T02:22:46;99374.72;;;21.26;62.99
41947;BME280;27638;42.184;24.848;2022-07-10T02:25:11;99377.31;;;21.10;63.50
41947;BME280;27638;42.184;24.848;2022-07-10T02:27:37;99383.50;;;21.10;63.24
41947;BME280;27638;42.184;24.848;2022-07-10T02:30:02;99381.91;;;20.97;63.76
41947;BME280;27638;42.184;24.848;2022-07-10T02:32:28;99383.50;;;21.10;63.53
41947;BME280;27638;42.184;24.848;2022-07-10T02:34:53;99381.75;;;21.16;63.57
41947;BME280;27638;42.184;24.848;2022-07-10T02:37:19;99391.50;;;21.05;63.97
41947;BME280;27638;42.184;24.848;2022-07-10T02:39:44;99381.25;;;21.19;63.25
41947;BME280;27638;42.184;24.848;2022-07-10T02:42:09;99384.47;;;21.04;63.91
41947;BME280;27638;42.184;24.848;2022-07-10T02:44:35;99387.16;;;21.04;63.72
41947;BME280;27638;42.184;24.848;2022-07-10T02:47:00;99384.50;;;20.92;64.12
41947;BME280;27638;42.184;24.848;2022-07-10T02:49:26;99391.63;;;20.98;63.86
41947;BME280;27638;42.184;24.848;2022-07-10T02:51:51;99384.28;;;20.82;64.10
41947;BME280;27638;42.184;24.848;2022-07-10T02:54:18;99373.53;;;20.82;64.02
41947;BME280;27638;42.184;24.848;2022-07-10T02:56:43;99394.69;;;20.90;63.36
41947;BME280;27638;42.184;24.848;2022-07-10T02:59:08;99398.66;;;20.99;63.26
41947;BME280;27638;42.184;24.848;2022-07-10T03:01:34;99402.84;;;21.07;62.39
41947;BME280;27638;42.184;24.848;2022-07-10T03:03:59;99398.78;;;20.93;62.89
41947;BME280;27638;42.184;24.848;2022-07-10T03:06:26;99398.88;;;20.98;62.70
41947;BME280;27638;42.184;24.848;2022-07-10T03:08:52;99391.56;;;20.82;63.52
41947;BME280;27638;42.184;24.848;2022-07-10T03:11:17;99392.78;;;21.02;62.84
41947;BME280;27638;42.184;24.848;2022-07-10T03:13:43;99392.00;;;20.90;63.14
41947;BME280;27638;42.184;24.848;2022-07-10T03:16:08;99398.44;;;20.89;63.31
41947;BME280;27638;42.184;24.848;2022-07-10T03:18:34;99396.56;;;20.90;63.26
41947;BME280;27638;42.184;24.848;2022-07-10T03:20:59;99387.56;;;20.72;63.74
41947;BME280;27638;42.184;24.848;2022-07-10T03:23:24;99391.31;;;20.60;64.38
41947;BME280;27638;42.184;24.848;2022-07-10T03:25:51;99380.56;;;20.60;64.44
41947;BME280;27638;42.184;24.848;2022-07-10T03:28:16;99396.31;;;20.80;63.79
41947;BME280;27638;42.184;24.848;2022-07-10T03:30:42;99392.00;;;20.90;63.49
41947;BME280;27638;42.184;24.848;2022-07-10T03:33:07;99391.41;;;20.88;63.31
41947;BME280;27638;42.184;24.848;2022-07-10T03:35:33;99380.31;;;20.73;63.85
41947;BME280;27638;42.184;24.848;2022-07-10T03:37:58;99390.25;;;20.84;63.58
41947;BME280;27638;42.184;24.848;2022-07-10T03:40:24;99384.06;;;20.84;63.27
41947;BME280;27638;42.184;24.848;2022-07-10T03:42:51;99385.69;;;20.61;64.24
41947;BME280;27638;42.184;24.848;2022-07-10T03:45:17;99380.41;;;20.78;63.69
41947;BME280;27638;42.184;24.848;2022-07-10T03:47:42;99380.78;;;20.58;64.54
41947;BME280;27638;42.184;24.848;2022-07-10T03:50:08;99382.78;;;20.63;64.74
41947;BME280;27638;42.184;24.848;2022-07-10T03:52:34;99374.47;;;20.64;64.94
41947;BME280;27638;42.184;24.848;2022-07-10T03:55:00;99366.41;;;20.64;64.84
41947;BME280;27638;42.184;24.848;2022-07-10T03:57:26;99372.59;;;20.65;65.22
41947;BME280;27638;42.184;24.848;2022-07-10T04:00:10;99383.25;;;20.60;65.48
41947;BME280;27638;42.184;24.848;2022-07-10T04:02:36;99376.69;;;20.67;65.33
41947;BME280;27638;42.184;24.848;2022-07-10T04:05:07;99381.00;;;20.68;65.45
41947;BME280;27638;42.184;24.848;2022-07-10T04:07:34;99369.44;;;20.68;65.76
41947;BME280;27638;42.184;24.848;2022-07-10T04:10:00;99367.56;;;20.68;65.56
41947;BME280;27638;42.184;24.848;2022-07-10T04:12:25;99366.84;;;20.73;65.63
41947;BME280;27638;42.184;24.848;2022-07-10T04:14:51;99364.84;;;20.92;65.24
41947;BME280;27638;42.184;24.848;2022-07-10T04:17:17;99342.84;;;20.95;64.88
41947;BME280;27638;42.184;24.848;2022-07-10T04:19:43;99366.06;;;21.13;64.80
41947;BME280;27638;42.184;24.848;2022-07-10T04:22:08;99367.81;;;21.19;64.61
41947;BME280;27638;42.184;24.848;2022-07-10T04:24:34;99363.88;;;21.38;63.88
41947;BME280;27638;42.184;24.848;2022-07-10T04:27:00;99377.84;;;21.35;63.68
41947;BME280;27638;42.184;24.848;2022-07-10T04:29:26;99370.06;;;21.67;63.08
41947;BME280;27638;42.184;24.848;2022-07-10T04:31:51;99367.69;;;21.71;62.52
41947;BME280;27638;42.184;24.848;2022-07-10T04:34:17;99371.69;;;21.68;62.80
41947;BME280;27638;42.184;24.848;2022-07-10T04:36:42;99373.66;;;21.73;62.50
41947;BME280;27638;42.184;24.848;2022-07-10T04:39:08;99377.13;;;21.85;61.99
41947;BME280;27638;42.184;24.848;2022-07-10T04:41:33;99381.88;;;21.94;61.59
41947;BME280;27638;42.184;24.848;2022-07-10T04:43:59;99393.34;;;22.18;60.80
41947;BME280;27638;42.184;24.848;2022-07-10T04:46:25;99393.00;;;22.32;60.00
41947;BME280;27638;42.184;24.848;2022-07-10T04:48:50;99394.53;;;22.44;59.83
41947;BME280;27638;42.184;24.848;2022-07-10T04:51:16;99385.97;;;22.30;60.30
41947;BME280;27638;42.184;24.848;2022-07-10T04:53:42;99394.47;;;22.22;59.56
41947;BME280;27638;42.184;24.848;2022-07-10T04:56:07;99392.66;;;22.28;59.68
41947;BME280;27638;42.184;24.848;2022-07-10T04:58:33;99387.34;;;22.33;59.55
41947;BME280;27638;42.184;24.848;2022-07-10T05:00:58;99390.16;;;22.60;58.70
41947;BME280;27638;42.184;24.848;2022-07-10T05:03:24;99406.81;;;22.90;57.63
41947;BME280;27638;42.184;24.848;2022-07-10T05:05:49;99400.09;;;23.15;56.59
41947;BME280;27638;42.184;24.848;2022-07-10T05:08:15;99393.75;;;23.26;56.30
41947;BME280;27638;42.184;24.848;2022-07-10T05:10:40;99394.84;;;23.52;55.82
41947;BME280;27638;42.184;24.848;2022-07-10T05:13:05;99401.66;;;23.54;55.47
41947;BME280;27638;42.184;24.848;2022-07-10T05:15:31;99407.75;;;23.72;55.29
41947;BME280;27638;42.184;24.848;2022-07-10T05:17:57;99379.88;;;23.66;54.33
41947;BME280;27638;42.184;24.848;2022-07-10T05:20:23;99411.06;;;23.79;54.86
41947;BME280;27638;42.184;24.848;2022-07-10T05:22:48;99407.28;;;24.07;54.17
41947;BME280;27638;42.184;24.848;2022-07-10T05:25:13;99408.41;;;24.11;54.18
41947;BME280;27638;42.184;24.848;2022-07-10T05:27:39;99398.03;;;24.30;53.31
41947;BME280;27638;42.184;24.848;2022-07-10T05:30:05;99400.88;;;24.18;53.82
41947;BME280;27638;42.184;24.848;2022-07-10T05:32:30;99413.22;;;24.04;53.97
41947;BME280;27638;42.184;24.848;2022-07-10T05:34:59;99408.47;;;24.21;54.00
41947;BME280;27638;42.184;24.848;2022-07-10T05:37:24;99410.19;;;24.27;53.62
41947;BME280;27638;42.184;24.848;2022-07-10T05:39:50;99410.03;;;24.44;53.52
41947;BME280;27638;42.184;24.848;2022-07-10T05:42:15;99413.22;;;24.78;52.46
41947;BME280;27638;42.184;24.848;2022-07-10T05:44:40;99405.84;;;25.16;51.90
41947;BME280;27638;42.184;24.848;2022-07-10T05:47:06;99402.34;;;25.25;51.41
41947;BME280;27638;42.184;24.848;2022-07-10T05:49:32;99406.22;;;25.50;50.71
41947;BME280;27638;42.184;24.848;2022-07-10T05:51:58;99411.50;;;25.09;50.96
41947;BME280;27638;42.184;24.848;2022-07-10T05:54:23;99401.72;;;24.98;51.71
41947;BME280;27638;42.184;24.848;2022-07-10T05:56:49;99410.69;;;25.08;51.51
41947;BME280;27638;42.184;24.848;2022-07-10T05:59:14;99407.22;;;24.71;51.79
41947;BME280;27638;42.184;24.848;2022-07-10T06:01:40;99418.72;;;24.51;52.66
41947;BME280;27638;42.184;24.848;2022-07-10T06:04:05;99416.50;;;24.43;53.07
41947;BME280;27638;42.184;24.848;2022-07-10T06:06:31;99410.22;;;24.32;53.51
41947;BME280;27638;42.184;24.848;2022-07-10T06:08:56;99414.38;;;24.45;53.44
41947;BME280;27638;42.184;24.848;2022-07-10T06:11:24;99413.97;;;24.68;53.21
41947;BME280;27638;42.184;24.848;2022-07-10T06:13:49;99408.66;;;24.89;52.58
41947;BME280;27638;42.184;24.848;2022-07-10T06:16:15;99415.16;;;25.50;51.51
41947;BME280;27638;42.184;24.848;2022-07-10T06:18:40;99412.03;;;26.09;49.84
41947;BME280;27638;42.184;24.848;2022-07-10T06:21:06;99407.97;;;26.01;48.70
41947;BME280;27638;42.184;24.848;2022-07-10T06:23:31;99407.41;;;26.04;48.90
41947;BME280;27638;42.184;24.848;2022-07-10T06:25:57;99410.63;;;25.81;49.36
41947;BME280;27638;42.184;24.848;2022-07-10T06:28:22;99420.13;;;25.84;49.74
41947;BME280;27638;42.184;24.848;2022-07-10T06:30:47;99415.19;;;25.60;50.67
41947;BME280;27638;42.184;24.848;2022-07-10T06:33:13;99406.78;;;25.62;50.00
41947;BME280;27638;42.184;24.848;2022-07-10T06:35:38;99410.56;;;25.61;49.94
41947;BME280;27638;42.184;24.848;2022-07-10T06:38:04;99410.63;;;25.86;49.19
41947;BME280;27638;42.184;24.848;2022-07-10T06:40:37;99412.53;;;25.70;49.51
41947;BME280;27638;42.184;24.848;2022-07-10T06:43:03;99404.59;;;25.49;49.09
41947;BME280;27638;42.184;24.848;2022-07-10T06:45:28;99414.31;;;25.34;49.66
41947;BME280;27638;42.184;24.848;2022-07-10T06:47:54;99418.69;;;25.51;50.39
41947;BME280;27638;42.184;24.848;2022-07-10T06:50:28;99418.00;;;26.06;49.05
41947;BME280;27638;42.184;24.848;2022-07-10T06:52:58;99419.88;;;26.56;47.88
41947;BME280;27638;42.184;24.848;2022-07-10T06:55:24;99415.19;;;26.82;46.52
41947;BME280;27638;42.184;24.848;2022-07-10T06:57:50;99415.97;;;27.13;46.55
41947;BME280;27638;42.184;24.848;2022-07-10T07:00:16;99399.56;;;27.33;45.99
41947;BME280;27638;42.184;24.848;2022-07-10T07:02:42;99419.53;;;27.58;44.61
41947;BME280;27638;42.184;24.848;2022-07-10T07:05:08;99411.00;;;27.25;46.16
41947;BME280;27638;42.184;24.848;2022-07-10T07:07:35;99416.53;;;26.85;46.98
41947;BME280;27638;42.184;24.848;2022-07-10T07:10:01;99412.81;;;26.60;47.25
41947;BME280;27638;42.184;24.848;2022-07-10T07:12:26;99407.41;;;26.50;47.51
41947;BME280;27638;42.184;24.848;2022-07-10T07:14:52;99411.34;;;27.03;46.80
41947;BME280;27638;42.184;24.848;2022-07-10T07:17:17;99406.72;;;27.04;46.61
41947;BME280;27638;42.184;24.848;2022-07-10T07:19:51;99408.69;;;26.83;47.58
41947;BME280;27638;42.184;24.848;2022-07-10T07:22:35;99411.09;;;27.00;46.66
41947;BME280;27638;42.184;24.848;2022-07-10T07:25:20;99400.41;;;27.24;46.38
41947;BME280;27638;42.184;24.848;2022-07-10T07:27:45;99400.34;;;27.39;46.45
41947;BME280;27638;42.184;24.848;2022-07-10T07:30:13;99400.63;;;27.38;45.07
41947;BME280;27638;42.184;24.848;2022-07-10T07:32:43;99407.84;;;27.57;45.33
41947;BME280;27638;42.184;24.848;2022-07-10T07:35:12;99402.53;;;27.81;44.43
41947;BME280;27638;42.184;24.848;2022-07-10T07:37:42;99406.88;;;27.82;44.17
41947;BME280;27638;42.184;24.848;2022-07-10T07:40:12;99406.44;;;28.04;44.24
41947;BME280;27638;42.184;24.848;2022-07-10T07:42:38;99388.06;;;28.54;42.70
41947;BME280;27638;42.184;24.848;2022-07-10T07:45:04;99394.75;;;28.90;41.95
41947;BME280;27638;42.184;24.848;2022-07-10T07:47:30;99395.72;;;29.00;41.16
41947;BME280;27638;42.184;24.848;2022-07-10T07:49:56;99393.28;;;29.22;40.83
41947;BME280;27638;42.184;24.848;2022-07-10T07:52:22;99395.47;;;29.44;39.67
41947;BME280;27638;42.184;24.848;2022-07-10T07:54:48;99388.66;;;29.41;39.97
41947;BME280;27638;42.184;24.848;2022-07-10T07:57:14;99391.31;;;29.28;40.61
41947;BME280;27638;42.184;24.848;2022-07-10T07:59:40;99386.22;;;29.21;41.05
41947;BME280;27638;42.184;24.848;2022-07-10T08:02:05;99396.53;;;29.24;40.65
41947;BME280;27638;42.184;24.848;2022-07-10T08:04:31;99402.41;;;28.88;40.58
41947;BME280;27638;42.184;24.848;2022-07-10T08:06:57;99395.00;;;28.41;41.06
41947;BME280;27638;42.184;24.848;2022-07-10T08:09:22;99404.81;;;28.03;41.33
41947;BME280;27638;42.184;24.848;2022-07-10T08:11:48;99398.91;;;27.91;41.77
41947;BME280;27638;42.184;24.848;2022-07-10T08:14:13;99400.53;;;27.92;42.63
41947;BME280;27638;42.184;24.848;2022-07-10T08:16:40;99402.56;;;28.15;42.51
41947;BME280;27638;42.184;24.848;2022-07-10T08:19:05;99399.72;;;27.91;41.73
41947;BME280;27638;42.184;24.848;2022-07-10T08:21:31;99406.06;;;27.82;42.26
41947;BME280;27638;42.184;24.848;2022-07-10T08:23:57;99403.09;;;27.78;42.78
41947;BME280;27638;42.184;24.848;2022-07-10T08:26:24;99391.94;;;27.80;43.08
41947;BME280;27638;42.184;24.848;2022-07-10T08:28:49;99400.88;;;27.85;43.57
41947;BME280;27638;42.184;24.848;2022-07-10T08:31:15;99404.75;;;27.74;43.85
41947;BME280;27638;42.184;24.848;2022-07-10T08:33:40;99395.72;;;27.40;44.51
41947;BME280;27638;42.184;24.848;2022-07-10T08:36:06;99407.72;;;27.28;45.11
41947;BME280;27638;42.184;24.848;2022-07-10T08:38:31;99401.41;;;27.43;44.92
41947;BME280;27638;42.184;24.848;2022-07-10T08:40:57;99396.28;;;27.37;44.77
41947;BME280;27638;42.184;24.848;2022-07-10T08:43:24;99408.06;;;27.17;45.11
41947;BME280;27638;42.184;24.848;2022-07-10T08:45:51;99411.34;;;27.14;45.30
41947;BME280;27638;42.184;24.848;2022-07-10T08:48:22;99401.56;;;27.08;46.44
41947;BME280;27638;42.184;24.848;2022-07-10T08:50:52;99410.25;;;27.15;45.92
41947;BME280;27638;42.184;24.848;2022-07-10T08:53:29;99414.34;;;27.07;45.55
41947;BME280;27638;42.184;24.848;2022-07-10T08:56:00;99411.66;;;26.82;45.98
41947;BME280;27638;42.184;24.848;2022-07-10T08:58:26;99416.78;;;26.93;45.72
41947;BME280;27638;42.184;24.848;2022-07-10T09:00:53;99412.97;;;27.04;46.02
41947;BME280;27638;42.184;24.848;2022-07-10T09:03:19;99407.28;;;27.01;45.42
41947;BME280;27638;42.184;24.848;2022-07-10T09:05:45;99410.25;;;26.94;45.71
41947;BME280;27638;42.184;24.848;2022-07-10T09:08:25;99401.34;;;26.79;45.77
41947;BME280;27638;42.184;24.848;2022-07-10T09:11:13;99412.56;;;26.57;45.81
41947;BME280;27638;42.184;24.848;2022-07-10T09:14:15;99414.94;;;26.73;45.72
41947;BME280;27638;42.184;24.848;2022-07-10T09:16:42;99422.88;;;26.60;46.48
41947;BME280;27638;42.184;24.848;2022-07-10T09:21:44;99422.34;;;26.27;49.21
41947;BME280;27638;42.184;24.848;2022-07-10T09:24:10;99425.06;;;26.12;49.44
41947;BME280;27638;42.184;24.848;2022-07-10T09:26:37;99432.38;;;26.12;48.88
41947;BME280;27638;42.184;24.848;2022-07-10T09:29:12;99424.22;;;26.27;48.49
41947;BME280;27638;42.184;24.848;2022-07-10T09:31:57;99432.66;;;26.15;49.27
41947;BME280;27638;42.184;24.848;2022-07-10T09:34:44;99428.59;;;26.13;49.76
41947;BME280;27638;42.184;24.848;2022-07-10T09:37:28;99424.25;;;26.06;50.10
41947;BME280;27638;42.184;24.848;2022-07-10T09:42:34;99434.81;;;26.08;50.32
41947;BME280;27638;42.184;24.848;2022-07-10T09:47:53;99426.09;;;25.86;48.74
41947;BME280;27638;42.184;24.848;2022-07-10T09:52:50;99429.13;;;26.20;51.31
41947;BME280;27638;42.184;24.848;2022-07-10T09:55:18;99428.84;;;26.06;43.95
41947;BME280;27638;42.184;24.848;2022-07-10T09:57:45;99428.59;;;26.13;46.95
41947;BME280;27638;42.184;24.848;2022-07-10T10:00:13;99421.25;;;26.44;47.10
41947;BME280;27638;42.184;24.848;2022-07-10T10:02:39;99426.97;;;26.37;47.28
41947;BME280;27638;42.184;24.848;2022-07-10T10:05:05;99426.16;;;26.42;46.43
41947;BME280;27638;42.184;24.848;2022-07-10T10:07:32;99425.88;;;26.43;44.84
41947;BME280;27638;42.184;24.848;2022-07-10T10:10:01;99427.75;;;26.53;47.23
41947;BME280;27638;42.184;24.848;2022-07-10T10:12:31;99424.22;;;26.52;46.57
41947;BME280;27638;42.184;24.848;2022-07-10T10:15:01;99421.25;;;26.44;47.67
41947;BME280;27638;42.184;24.848;2022-07-10T10:17:28;99402.81;;;26.46;47.52
41947;BME280;27638;42.184;24.848;2022-07-10T10:19:55;99414.97;;;26.63;47.28
41947;BME280;27638;42.184;24.848;2022-07-10T10:22:43;99410.91;;;26.56;47.88
41947;BME280;27638;42.184;24.848;2022-07-10T10:25:09;99415.81;;;26.49;49.02
41947;BME280;27638;42.184;24.848;2022-07-10T10:27:36;99412.03;;;26.50;48.74
41947;BME280;27638;42.184;24.848;2022-07-10T10:30:02;99408.16;;;26.76;48.39
41947;BME280;27638;42.184;24.848;2022-07-10T10:32:28;99399.44;;;26.84;47.09
41947;BME280;27638;42.184;24.848;2022-07-10T10:35:06;99406.19;;;27.02;47.20
41947;BME280;27638;42.184;24.848;2022-07-10T10:37:39;99404.00;;;27.14;44.78
41947;BME280;27638;42.184;24.848;2022-07-10T10:40:29;99398.78;;;27.23;42.29
41947;BME280;27638;42.184;24.848;2022-07-10T10:42:55;99391.41;;;27.33;43.85
41947;BME280;27638;42.184;24.848;2022-07-10T10:45:30;99393.22;;;27.48;41.87
41947;BME280;27638;42.184;24.848;2022-07-10T10:50:38;99394.66;;;27.80;41.54
41947;BME280;27638;42.184;24.848;2022-07-10T10:53:04;99385.75;;;27.69;39.46
41947;BME280;27638;42.184;24.848;2022-07-10T10:55:30;99384.31;;;27.82;39.60
41947;BME280;27638;42.184;24.848;2022-07-10T10:58:14;99380.13;;;27.94;40.30
41947;BME280;27638;42.184;24.848;2022-07-10T11:00:39;99387.19;;;27.95;40.16
41947;BME280;27638;42.184;24.848;2022-07-10T11:03:14;99387.00;;;28.21;38.63
41947;BME280;27638;42.184;24.848;2022-07-10T11:05:41;99373.84;;;28.33;37.98
41947;BME280;27638;42.184;24.848;2022-07-10T11:08:10;99379.34;;;28.52;37.46
41947;BME280;27638;42.184;24.848;2022-07-10T11:13:12;99375.66;;;28.43;36.21
41947;BME280;27638;42.184;24.848;2022-07-10T11:15:39;99365.28;;;28.69;36.11
41947;BME280;27638;42.184;24.848;2022-07-10T11:18:10;99349.56;;;28.60;37.55
41947;BME280;27638;42.184;24.848;2022-07-10T11:20:41;99348.88;;;28.98;38.18
41947;BME280;27638;42.184;24.848;2022-07-10T11:25:54;99327.44;;;28.91;36.12
41947;BME280;27638;42.184;24.848;2022-07-10T11:31:17;99342.75;;;28.87;36.57
41947;BME280;27638;42.184;24.848;2022-07-10T11:33:45;99343.19;;;28.46;35.90
41947;BME280;27638;42.184;24.848;2022-07-10T11:36:19;99336.88;;;28.51;36.25
41947;BME280;27638;42.184;24.848;2022-07-10T11:38:47;99341.81;;;28.49;36.58
41947;BME280;27638;42.184;24.848;2022-07-10T11:41:21;99324.66;;;28.48;35.77
41947;BME280;27638;42.184;24.848;2022-07-10T11:43:50;99328.25;;;28.44;35.79
41947;BME280;27638;42.184;24.848;2022-07-10T11:46:16;99323.50;;;28.54;36.15
41947;BME280;27638;42.184;24.848;2022-07-10T11:48:42;99325.19;;;28.50;36.54
41947;BME280;27638;42.184;24.848;2022-07-10T11:51:34;99323.38;;;28.65;36.44
41947;BME280;27638;42.184;24.848;2022-07-10T11:54:07;99310.91;;;28.58;36.87
41947;BME280;27638;42.184;24.848;2022-07-10T11:56:36;99319.84;;;28.40;36.93
41947;BME280;27638;42.184;24.848;2022-07-10T11:59:08;99316.59;;;28.62;37.16
41947;BME280;27638;42.184;24.848;2022-07-10T12:01:44;99308.66;;;28.66;37.11
41947;BME280;27638;42.184;24.848;2022-07-10T12:04:11;99313.25;;;28.46;37.09
41947;BME280;27638;42.184;24.848;2022-07-10T12:06:39;99306.56;;;28.57;35.51
41947;BME280;27638;42.184;24.848;2022-07-10T12:09:16;99304.25;;;28.70;36.04
41947;BME280;27638;42.184;24.848;2022-07-10T12:11:43;99299.03;;;28.49;37.20
41947;BME280;27638;42.184;24.848;2022-07-10T12:14:13;99303.78;;;28.39;34.07
41947;BME280;27638;42.184;24.848;2022-07-10T12:16:49;99309.94;;;28.49;33.76
41947;BME280;27638;42.184;24.848;2022-07-10T12:19:18;99299.97;;;28.64;33.69
41947;BME280;27638;42.184;24.848;2022-07-10T12:21:45;99296.22;;;28.78;32.10
41947;BME280;27638;42.184;24.848;2022-07-10T12:24:12;99299.38;;;28.90;32.95
41947;BME280;27638;42.184;24.848;2022-07-10T12:26:39;99300.94;;;28.49;33.49
41947;BME280;27638;42.184;24.848;2022-07-10T12:29:12;99305.41;;;28.64;33.37
41947;BME280;27638;42.184;24.848;2022-07-10T12:31:44;99307.78;;;28.46;33.65
41947;BME280;27638;42.184;24.848;2022-07-10T12:34:10;99297.59;;;28.57;34.33
41947;BME280;27638;42.184;24.848;2022-07-10T12:36:47;99297.06;;;28.55;34.57
41947;BME280;27638;42.184;24.848;2022-07-10T12:39:15;99301.19;;;28.52;34.22
41947;BME280;27638;42.184;24.848;2022-07-10T12:45:09;99281.25;;;28.57;35.01
41947;BME280;27638;42.184;24.848;2022-07-10T12:47:45;99282.75;;;28.68;35.37
41947;BME280;27638;42.184;24.848;2022-07-10T12:50:12;99273.00;;;28.62;34.84
41947;BME280;27638;42.184;24.848;2022-07-10T12:52:38;99277.03;;;28.46;36.27
41947;BME280;27638;42.184;24.848;2022-07-10T12:55:11;99270.47;;;28.47;35.76
41947;BME280;27638;42.184;24.848;2022-07-10T13:00:30;99271.50;;;28.51;35.28
41947;BME280;27638;42.184;24.848;2022-07-10T13:03:02;99271.94;;;28.39;34.24
41947;BME280;27638;42.184;24.848;2022-07-10T13:05:40;99271.19;;;28.34;34.34
41947;BME280;27638;42.184;24.848;2022-07-10T13:10:38;99266.44;;;28.44;33.77
41947;BME280;27638;42.184;24.848;2022-07-10T13:13:04;99260.56;;;28.56;34.11
41947;BME280;27638;42.184;24.848;2022-07-10T13:15:31;99249.84;;;28.41;34.74
41947;BME280;27638;42.184;24.848;2022-07-10T13:17:57;99252.69;;;28.54;34.71
41947;BME280;27638;42.184;24.848;2022-07-10T13:20:23;99244.53;;;28.73;34.08
41947;BME280;27638;42.184;24.848;2022-07-10T13:22:48;99244.56;;;28.49;34.14